Effie, Minnesota
Current Conditions -  °F | °C
As of 8:33 PM on Friday 28 Nov 2014 (Local Time) from KFOZ Reporting Station
Overcast Overcast  
Wind Chill:   Ceiling: 3400
Heat Index: 18°   Visibility: 10mi
Dew Point: 12°   Wind: 7mph
Humidity: 79%   Direction: 160°SSE
Pressure: 29.73"   Gusts: NA
Location:  47.84°N, 93.64°W
Report Text: KFOZ 290233Z AUTO 16006KT 10SM BKN034 OVC042 M08/M11 A2973 RMK AO2
Loading
Personal Weather Stations






























Interactive Weather Map New forecast layout! Learn more

10-Day Weather Forecast

Advertisements
Track Severe Weather on mobile